createdAt,value
2023-05-08T00:00:27.184Z,42.42
2023-05-08T00:01:27.215Z,42.34
2023-05-08T00:02:27.297Z,42.29
2023-05-08T00:03:27.423Z,42.24
2023-05-08T00:04:27.393Z,42.22
2023-05-08T00:05:27.351Z,42.22
2023-05-08T00:06:27.392Z,42.17
2023-05-08T00:07:27.432Z,42.21
2023-05-08T00:08:27.463Z,42.19
2023-05-08T00:09:27.509Z,42.18
2023-05-08T00:10:27.551Z,42.17
2023-05-08T00:11:27.588Z,42.17
2023-05-08T00:12:27.635Z,42.15
2023-05-08T00:13:27.758Z,42.15
2023-05-08T00:14:27.727Z,42.15
2023-05-08T00:15:27.804Z,42.14
2023-05-08T00:16:27.876Z,42.15
2023-05-08T00:17:27.913Z,42.14
2023-05-08T00:18:27.911Z,42.17
2023-05-08T00:19:27.955Z,42.15
2023-05-08T00:20:28.014Z,42.16
2023-05-08T00:21:28.062Z,42.18
2023-05-08T00:22:28.097Z,42.19
2023-05-08T00:23:28.144Z,42.20
2023-05-08T00:24:28.201Z,42.21
2023-05-08T00:25:28.262Z,42.18
2023-05-08T00:26:28.294Z,42.17
2023-05-08T00:27:28.343Z,42.17
2023-05-08T00:28:28.386Z,42.17
2023-05-08T00:29:28.450Z,42.21
2023-05-08T00:30:28.524Z,42.21
2023-05-08T00:31:28.561Z,42.21
2023-05-08T00:32:28.646Z,42.20
2023-05-08T00:33:28.641Z,42.20
2023-05-08T00:34:28.693Z,42.19
2023-05-08T00:35:28.778Z,42.21
2023-05-08T00:36:28.805Z,42.23
2023-05-08T00:37:28.869Z,42.19
2023-05-08T00:38:28.932Z,42.22
2023-05-08T00:39:28.967Z,42.23
2023-05-08T00:40:29.022Z,42.18
2023-05-08T00:41:29.085Z,42.22
2023-05-08T00:42:29.138Z,42.23
2023-05-08T00:43:29.210Z,42.25
2023-05-08T00:44:29.258Z,42.24
2023-05-08T00:45:29.342Z,42.24
2023-05-08T00:46:29.395Z,42.25
2023-05-08T00:47:29.474Z,42.25
2023-05-08T00:48:29.457Z,42.23
2023-05-08T00:49:29.506Z,42.23
2023-05-08T00:50:29.568Z,42.26
2023-05-08T00:51:29.619Z,42.24
2023-05-08T00:52:29.700Z,42.25
2023-05-08T00:53:29.711Z,42.26
2023-05-08T00:54:29.769Z,42.25
2023-05-08T00:55:29.833Z,42.27
2023-05-08T00:56:29.889Z,42.27
2023-05-08T00:57:29.951Z,42.27
2023-05-08T00:58:30.074Z,42.26
2023-05-08T00:59:30.076Z,42.26
2023-05-08T01:00:30.132Z,42.26
2023-05-08T01:01:30.265Z,42.27
2023-05-08T01:02:30.328Z,42.27
2023-05-08T01:03:30.344Z,42.25
2023-05-08T01:04:30.365Z,42.28
2023-05-08T01:05:30.383Z,42.27
2023-05-08T01:06:30.437Z,42.26
2023-05-08T01:07:30.495Z,42.26
2023-05-08T01:08:30.555Z,42.28
2023-05-08T01:09:30.613Z,42.26
2023-05-08T01:10:30.724Z,42.26
2023-05-08T01:11:30.728Z,42.29
2023-05-08T01:12:30.779Z,42.26
2023-05-08T01:13:30.836Z,42.28
2023-05-08T01:14:30.879Z,42.25
2023-05-08T01:15:30.938Z,42.25
2023-05-08T01:16:31.065Z,42.25
2023-05-08T01:17:31.157Z,42.27
2023-05-08T01:18:31.072Z,42.26
2023-05-08T01:19:31.132Z,42.26
2023-05-08T01:20:31.181Z,42.29
2023-05-08T01:21:31.220Z,42.26
2023-05-08T01:22:31.279Z,42.27
2023-05-08T01:23:31.279Z,42.26
2023-05-08T01:24:31.322Z,42.24
2023-05-08T01:25:31.364Z,42.25
2023-05-08T01:26:31.387Z,42.25
2023-05-08T01:27:31.421Z,42.27
2023-05-08T01:28:31.479Z,42.27
2023-05-08T01:29:31.447Z,42.25
2023-05-08T01:30:31.481Z,42.27
2023-05-08T01:31:31.770Z,42.25
2023-05-08T01:32:31.582Z,42.27
2023-05-08T01:33:31.559Z,42.24
2023-05-08T01:34:31.527Z,42.28
2023-05-08T01:35:31.595Z,42.28
2023-05-08T01:36:31.621Z,42.28
2023-05-08T01:37:31.671Z,42.27
2023-05-08T01:38:31.740Z,42.29
2023-05-08T01:39:31.762Z,42.28
2023-05-08T01:40:31.797Z,42.24
2023-05-08T01:41:31.817Z,42.27
2023-05-08T01:42:31.850Z,42.28
2023-05-08T01:43:31.890Z,42.28
2023-05-08T01:44:31.994Z,42.28
2023-05-08T01:45:32.061Z,42.25
2023-05-08T01:46:32.045Z,42.27
2023-05-08T01:47:32.147Z,42.26
2023-05-08T01:48:32.143Z,42.26
2023-05-08T01:49:32.180Z,42.28
2023-05-08T01:50:32.177Z,42.27
2023-05-08T01:51:32.227Z,42.31
2023-05-08T01:52:32.211Z,42.28
2023-05-08T01:53:32.233Z,42.30
2023-05-08T01:54:32.240Z,42.29
2023-05-08T01:55:32.289Z,42.28
2023-05-08T01:56:32.297Z,42.28
2023-05-08T01:57:32.311Z,42.26
2023-05-08T01:58:32.313Z,42.28
2023-05-08T01:59:32.317Z,42.29
2023-05-08T02:00:32.313Z,42.28
2023-05-08T02:01:32.318Z,42.30
2023-05-08T02:02:32.347Z,42.27
2023-05-08T02:03:32.379Z,42.29
2023-05-08T02:04:32.270Z,42.28
2023-05-08T02:05:32.283Z,42.27
2023-05-08T02:06:32.245Z,42.28
2023-05-08T02:07:32.240Z,42.28
2023-05-08T02:08:32.244Z,42.29
2023-05-08T02:09:32.268Z,42.29
2023-05-08T02:10:32.251Z,42.29
2023-05-08T02:11:32.279Z,42.30
2023-05-08T02:12:32.275Z,42.32
2023-05-08T02:13:32.274Z,42.28
2023-05-08T02:14:33.126Z,42.28
2023-05-08T02:15:32.268Z,42.30
2023-05-08T02:16:32.307Z,42.33
2023-05-08T02:17:32.287Z,42.33
2023-05-08T02:18:32.316Z,42.31
2023-05-08T02:19:32.343Z,42.32
2023-05-08T02:20:32.348Z,42.31
2023-05-08T02:21:32.415Z,42.31
2023-05-08T02:22:32.444Z,42.30
2023-05-08T02:23:32.441Z,42.31
2023-05-08T02:24:32.445Z,42.32
2023-05-08T02:25:32.457Z,42.31
2023-05-08T02:26:32.480Z,42.34
2023-05-08T02:27:32.503Z,42.31
2023-05-08T02:28:32.512Z,42.30
2023-05-08T02:29:32.518Z,42.32
2023-05-08T02:30:32.563Z,42.32
2023-05-08T02:31:32.614Z,42.33
2023-05-08T02:32:32.595Z,42.33
2023-05-08T02:33:32.597Z,42.33
2023-05-08T02:34:32.605Z,42.34
2023-05-08T02:35:32.637Z,42.31
2023-05-08T02:36:32.669Z,42.34
2023-05-08T02:37:32.719Z,42.32
2023-05-08T02:38:32.745Z,42.33
2023-05-08T02:39:32.787Z,42.33
2023-05-08T02:40:32.829Z,42.33
2023-05-08T02:41:32.875Z,42.30
2023-05-08T02:42:32.930Z,42.32
2023-05-08T02:43:32.971Z,42.30
2023-05-08T02:44:33.021Z,42.33
2023-05-08T02:45:33.081Z,42.32
2023-05-08T02:46:33.204Z,42.34
2023-05-08T02:47:33.218Z,42.34
2023-05-08T02:48:33.285Z,42.33
2023-05-08T02:49:33.371Z,42.32
2023-05-08T02:50:33.360Z,42.33
2023-05-08T02:51:33.391Z,42.35
2023-05-08T02:52:33.420Z,42.34
2023-05-08T02:53:33.472Z,42.35
2023-05-08T02:54:33.504Z,42.34
2023-05-08T02:55:33.553Z,42.31
2023-05-08T02:56:33.582Z,42.35
2023-05-08T02:57:33.623Z,42.34
2023-05-08T02:58:33.646Z,42.37
2023-05-08T02:59:33.673Z,42.35
2023-05-08T03:00:33.704Z,42.32
2023-05-08T03:01:33.748Z,42.34
2023-05-08T03:02:33.817Z,42.35
2023-05-08T03:03:33.997Z,42.34
2023-05-08T03:04:33.784Z,42.34
2023-05-08T03:05:33.813Z,42.34
2023-05-08T03:06:33.836Z,42.35
2023-05-08T03:07:33.899Z,42.38
2023-05-08T03:08:33.924Z,42.35
2023-05-08T03:09:33.953Z,42.38
2023-05-08T03:10:33.944Z,42.37
2023-05-08T03:11:33.957Z,42.39
2023-05-08T03:12:33.957Z,42.34
2023-05-08T03:13:33.949Z,42.37
2023-05-08T03:14:33.940Z,42.38
2023-05-08T03:15:34.004Z,42.37
2023-05-08T03:16:33.981Z,42.36
2023-05-08T03:17:34.039Z,42.37
2023-05-08T03:18:34.045Z,42.38
2023-05-08T03:19:34.085Z,42.36
2023-05-08T03:20:34.110Z,42.35
2023-05-08T03:21:34.109Z,42.39
2023-05-08T03:22:34.097Z,42.38
2023-05-08T03:23:34.090Z,42.37
2023-05-08T03:24:34.073Z,42.39
2023-05-08T03:25:34.102Z,42.37
2023-05-08T03:26:34.065Z,42.39
2023-05-08T03:27:34.060Z,42.39
2023-05-08T03:28:34.055Z,42.38
2023-05-08T03:29:34.040Z,42.37
2023-05-08T03:30:34.030Z,42.40
2023-05-08T03:31:34.107Z,42.39
2023-05-08T03:32:34.075Z,42.39
2023-05-08T03:33:34.032Z,42.37
2023-05-08T03:34:34.050Z,42.40
2023-05-08T03:35:34.031Z,42.38
2023-05-08T03:36:34.006Z,42.37
2023-05-08T03:37:33.997Z,42.38
2023-05-08T03:38:33.996Z,42.35
2023-05-08T03:39:33.980Z,42.38
2023-05-08T03:40:33.982Z,42.40
2023-05-08T03:41:34.018Z,42.39
2023-05-08T03:42:34.000Z,42.39
2023-05-08T03:43:33.989Z,42.37
2023-05-08T03:44:34.797Z,42.37
2023-05-08T03:45:33.960Z,42.39
2023-05-08T03:46:33.989Z,42.38
2023-05-08T03:47:33.966Z,42.41
2023-05-08T03:48:33.943Z,42.39
2023-05-08T03:49:33.930Z,42.39
2023-05-08T03:50:33.936Z,42.40
2023-05-08T03:51:33.929Z,42.41
2023-05-08T03:52:33.924Z,42.39
2023-05-08T03:53:33.917Z,42.41
2023-05-08T03:54:33.911Z,42.39
2023-05-08T03:55:33.902Z,42.40
2023-05-08T03:56:33.898Z,42.39
2023-05-08T03:57:33.992Z,42.41
2023-05-08T03:58:33.875Z,42.40
2023-05-08T03:59:33.896Z,42.39
2023-05-08T04:00:33.874Z,42.39
2023-05-08T04:01:33.898Z,42.41
2023-05-08T04:02:33.994Z,42.38
2023-05-08T04:03:33.924Z,42.36
2023-05-08T04:04:33.909Z,42.40
2023-05-08T04:05:34.002Z,42.39
2023-05-08T04:06:45.849Z,42.39
2023-05-08T04:07:33.897Z,42.40
2023-05-08T04:08:33.879Z,42.42
2023-05-08T04:09:33.872Z,42.42
2023-05-08T04:10:33.863Z,42.39
2023-05-08T04:11:33.850Z,42.41
2023-05-08T04:12:33.834Z,42.39
2023-05-08T04:13:33.840Z,42.41
2023-05-08T04:14:33.805Z,42.40
2023-05-08T04:15:33.787Z,42.41
2023-05-08T04:16:33.810Z,42.41
2023-05-08T04:17:33.787Z,42.43
2023-05-08T04:18:33.733Z,42.39
2023-05-08T04:19:33.728Z,42.40
2023-05-08T04:20:33.714Z,42.40
2023-05-08T04:21:33.702Z,42.41
2023-05-08T04:22:33.716Z,42.41
2023-05-08T04:23:33.651Z,42.40
2023-05-08T04:24:33.641Z,42.39
2023-05-08T04:25:33.632Z,42.40
2023-05-08T04:26:33.613Z,42.41
2023-05-08T04:27:33.593Z,42.43
2023-05-08T04:28:33.590Z,42.42
2023-05-08T04:29:33.605Z,42.42
2023-05-08T04:30:33.623Z,42.42
2023-05-08T04:31:33.555Z,42.38
2023-05-08T04:32:33.548Z,42.42
2023-05-08T04:33:33.503Z,42.42
2023-05-08T04:34:33.493Z,42.39
2023-05-08T04:35:33.488Z,42.42
2023-05-08T04:36:33.458Z,42.44
2023-05-08T04:37:33.441Z,42.41
2023-05-08T04:38:33.431Z,42.41
2023-05-08T04:39:33.434Z,42.42
2023-05-08T04:40:33.411Z,42.42
2023-05-08T04:41:33.448Z,42.42
2023-05-08T04:42:33.371Z,42.39
2023-05-08T04:43:33.348Z,42.42
2023-05-08T04:44:33.342Z,42.41
2023-05-08T04:45:33.380Z,42.43
2023-05-08T04:46:33.319Z,42.42
2023-05-08T04:47:33.335Z,42.40
2023-05-08T04:48:33.281Z,42.42
2023-05-08T04:49:33.254Z,42.40
2023-05-08T04:50:33.233Z,42.43
2023-05-08T04:51:33.226Z,42.41
2023-05-08T04:52:33.287Z,42.42
2023-05-08T04:53:33.180Z,42.41
2023-05-08T04:54:33.175Z,42.42
2023-05-08T04:55:33.152Z,42.41
2023-05-08T04:56:33.129Z,42.41
2023-05-08T04:57:33.148Z,42.42
2023-05-08T04:58:33.116Z,42.42
2023-05-08T04:59:33.067Z,42.41
2023-05-08T05:00:33.081Z,42.43
2023-05-08T05:01:33.092Z,42.42
2023-05-08T05:02:33.068Z,42.41
2023-05-08T05:03:33.020Z,42.41
2023-05-08T05:04:32.981Z,42.42
2023-05-08T05:05:32.967Z,42.42
2023-05-08T05:06:32.953Z,42.45
2023-05-08T05:07:32.960Z,42.44
2023-05-08T05:08:32.944Z,42.42
2023-05-08T05:09:32.906Z,42.43
2023-05-08T05:10:32.889Z,42.44
2023-05-08T05:11:32.877Z,42.42
2023-05-08T05:12:32.868Z,42.41
2023-05-08T05:13:32.853Z,42.43
2023-05-08T05:14:32.844Z,42.42
2023-05-08T05:15:32.807Z,42.43
2023-05-08T05:16:32.824Z,42.44
2023-05-08T05:17:32.833Z,42.44
2023-05-08T05:18:32.770Z,42.40
2023-05-08T05:19:32.761Z,42.40
2023-05-08T05:20:32.862Z,42.45
2023-05-08T05:21:32.701Z,42.43
2023-05-08T05:22:32.854Z,42.42
2023-05-08T05:23:32.660Z,42.41
2023-05-08T05:24:32.863Z,42.39
2023-05-08T05:25:32.631Z,42.39
2023-05-08T05:26:33.476Z,42.39
2023-05-08T05:27:32.607Z,42.43
2023-05-08T05:28:32.594Z,42.38
2023-05-08T05:29:32.565Z,42.41
2023-05-08T05:30:32.560Z,42.45
2023-05-08T05:31:32.585Z,42.47
2023-05-08T05:32:32.902Z,42.44
2023-05-08T05:33:32.542Z,42.55
2023-05-08T05:34:32.483Z,42.63
2023-05-08T05:35:32.470Z,42.62
2023-05-08T05:36:32.440Z,42.59
2023-05-08T05:37:32.423Z,42.61
2023-05-08T05:38:32.412Z,42.76
2023-05-08T05:39:32.383Z,42.78
2023-05-08T05:40:32.864Z,42.71
2023-05-08T05:41:32.355Z,42.69
2023-05-08T05:42:32.389Z,42.65
2023-05-08T05:43:32.315Z,42.63
2023-05-08T05:44:32.370Z,42.63
2023-05-08T05:45:33.601Z,42.64
2023-05-08T05:46:32.521Z,42.62
2023-05-08T05:47:32.350Z,42.77
2023-05-08T05:48:33.334Z,42.79
2023-05-08T05:49:32.332Z,42.68
2023-05-08T05:51:32.278Z,42.69
2023-05-08T05:52:32.266Z,42.70
2023-05-08T05:53:35.430Z,42.68
2023-05-08T05:54:32.228Z,42.70
2023-05-08T05:55:39.756Z,43.74
2023-05-08T05:56:32.185Z,43.43
2023-05-08T05:57:32.358Z,43.89
2023-05-08T05:58:39.573Z,43.69
2023-05-08T05:59:32.124Z,43.95
2023-05-08T06:00:32.124Z,43.97
2023-05-08T06:01:32.219Z,44.05
2023-05-08T06:02:32.492Z,44.01
2023-05-08T06:03:32.108Z,43.88
2023-05-08T06:04:39.464Z,43.81
2023-05-08T06:05:35.201Z,43.75
2023-05-08T06:06:35.183Z,43.66
2023-05-08T06:07:32.378Z,43.63
2023-05-08T06:08:35.129Z,43.63
2023-05-08T06:09:32.076Z,43.67
2023-05-08T06:10:31.885Z,43.68
2023-05-08T06:11:31.859Z,43.66
2023-05-08T06:12:31.857Z,43.68
2023-05-08T06:13:31.960Z,43.69
2023-05-08T06:14:32.391Z,43.66
2023-05-08T06:15:31.868Z,43.67
2023-05-08T06:16:31.791Z,43.64
2023-05-08T06:17:31.811Z,43.67
2023-05-08T06:18:31.722Z,43.68
2023-05-08T06:19:31.699Z,43.65
2023-05-08T06:20:32.033Z,43.63
2023-05-08T06:21:31.665Z,43.66
2023-05-08T06:22:31.649Z,43.65
2023-05-08T06:23:31.614Z,43.65
2023-05-08T06:24:31.878Z,43.68
2023-05-08T06:25:31.589Z,43.70
2023-05-08T06:26:31.574Z,43.69
2023-05-08T06:27:31.551Z,43.69
2023-05-08T06:28:31.538Z,43.71
2023-05-08T06:29:31.513Z,43.72
2023-05-08T06:30:31.944Z,43.72
2023-05-08T06:31:31.530Z,43.75
2023-05-08T06:32:31.485Z,43.72
2023-05-08T06:33:31.441Z,43.75
2023-05-08T06:34:31.404Z,43.74
2023-05-08T06:35:31.880Z,43.72
2023-05-08T06:36:31.417Z,43.74
2023-05-08T06:37:31.335Z,43.74
2023-05-08T06:38:31.299Z,43.71
2023-05-08T06:39:31.282Z,43.77
2023-05-08T06:40:32.323Z,43.74
2023-05-08T06:41:31.264Z,43.77
2023-05-08T06:42:31.232Z,43.74
2023-05-08T06:43:31.375Z,43.74
2023-05-08T06:44:31.205Z,43.73
2023-05-08T06:45:31.529Z,43.71
2023-05-08T06:46:31.224Z,43.75
2023-05-08T06:47:31.419Z,43.74
2023-05-08T06:48:31.137Z,43.73
2023-05-08T06:49:31.181Z,43.72
2023-05-08T06:50:31.164Z,43.75
2023-05-08T06:51:31.166Z,43.73
2023-05-08T06:52:31.420Z,43.70
2023-05-08T06:53:31.383Z,43.73
2023-05-08T06:54:31.241Z,43.71
2023-05-08T06:55:31.401Z,43.76
2023-05-08T06:56:31.255Z,43.76
2023-05-08T06:57:31.414Z,43.78
2023-05-08T06:58:31.226Z,43.74
2023-05-08T06:59:31.239Z,43.76
2023-05-08T07:00:31.222Z,43.73
2023-05-08T07:01:31.300Z,43.71
2023-05-08T07:02:31.242Z,43.76
2023-05-08T07:03:31.181Z,43.74
2023-05-08T07:04:32.359Z,43.76
2023-05-08T07:05:31.181Z,43.74
2023-05-08T07:06:31.142Z,43.71
2023-05-08T07:07:31.398Z,43.74
2023-05-08T07:08:31.503Z,43.73
2023-05-08T07:09:31.099Z,43.73
2023-05-08T07:10:31.071Z,43.73
2023-05-08T07:11:31.047Z,43.70
2023-05-08T07:12:31.060Z,43.72
2023-05-08T07:13:31.543Z,43.72
2023-05-08T07:14:32.005Z,43.75
2023-05-08T07:15:31.260Z,43.74
2023-05-08T07:16:31.020Z,43.71
2023-05-08T07:17:31.022Z,43.67
2023-05-08T07:18:31.394Z,43.70
2023-05-08T07:19:30.952Z,43.75
2023-05-08T07:20:30.945Z,43.74
2023-05-08T07:21:30.926Z,43.69
2023-05-08T07:22:30.939Z,43.71
2023-05-08T07:23:31.400Z,43.73
2023-05-08T07:24:30.942Z,43.69
2023-05-08T07:25:46.493Z,43.72
2023-05-08T07:26:30.863Z,43.73
2023-05-08T07:27:34.035Z,43.71
2023-05-08T07:28:30.900Z,43.73
2023-05-08T07:29:30.806Z,43.72
2023-05-08T07:30:32.817Z,43.68
2023-05-08T07:31:30.790Z,43.70
2023-05-08T07:32:30.788Z,43.71
2023-05-08T07:33:30.900Z,43.69
2023-05-08T07:34:30.736Z,43.92
2023-05-08T07:35:30.704Z,44.03
2023-05-08T07:36:33.919Z,44.06
2023-05-08T07:37:30.701Z,43.97
2023-05-08T07:38:46.534Z,44.23
2023-05-08T07:39:31.644Z,44.21
2023-05-08T07:40:30.722Z,44.18
2023-05-08T07:41:38.037Z,44.28
2023-05-08T07:42:30.621Z,44.17
2023-05-08T07:43:31.956Z,44.26
2023-05-08T07:44:47.200Z,44.24
2023-05-08T07:45:30.623Z,44.37
2023-05-08T07:46:30.586Z,44.45
2023-05-08T07:47:30.561Z,44.46
2023-05-08T07:48:30.982Z,44.91
2023-05-08T07:49:30.902Z,45.11
2023-05-08T07:50:30.444Z,44.78
2023-05-08T07:51:31.438Z,44.72
2023-05-08T07:52:30.413Z,44.86
2023-05-08T07:53:37.813Z,44.92
2023-05-08T07:54:30.391Z,44.98
2023-05-08T07:57:30.465Z,45.29
2023-05-08T07:58:33.429Z,45.31
2023-05-08T07:59:30.286Z,45.38
2023-05-08T08:00:30.296Z,45.39
2023-05-08T08:01:30.405Z,45.49
2023-05-08T08:02:30.358Z,45.66
2023-05-08T08:03:30.364Z,45.64
2023-05-08T08:04:30.337Z,45.70
2023-05-08T08:05:30.438Z,45.85
2023-05-08T08:06:30.140Z,45.91
2023-05-08T08:07:30.105Z,46.13
2023-05-08T08:08:30.473Z,46.02
2023-05-08T08:09:30.051Z,46.02
2023-05-08T08:10:31.025Z,46.08
2023-05-08T08:11:29.990Z,46.19
2023-05-08T08:12:29.991Z,46.26
2023-05-08T08:13:30.599Z,46.28
2023-05-08T08:14:29.894Z,46.35
2023-05-08T08:15:29.978Z,46.38
2023-05-08T08:16:29.835Z,46.43
2023-05-08T08:17:29.796Z,46.46
2023-05-08T08:18:29.762Z,46.48
2023-05-08T08:19:29.906Z,46.50
2023-05-08T08:20:29.698Z,46.52
2023-05-08T08:21:29.697Z,46.60
2023-05-08T08:22:29.656Z,46.67
2023-05-08T08:23:36.422Z,46.76
2023-05-08T08:24:29.598Z,46.82
2023-05-08T08:25:29.917Z,46.98
2023-05-08T08:26:29.553Z,47.05
2023-05-08T08:27:29.518Z,47.09
2023-05-08T08:28:29.470Z,47.14
2023-05-08T08:29:30.060Z,47.14
2023-05-08T08:30:29.437Z,47.24
2023-05-08T08:31:29.524Z,47.32
2023-05-08T08:32:29.386Z,47.33
2023-05-08T08:33:29.327Z,47.40
2023-05-08T08:34:29.293Z,47.42
2023-05-08T08:35:29.302Z,47.56
2023-05-08T08:36:29.441Z,47.68
2023-05-08T08:37:29.203Z,47.75
2023-05-08T08:38:29.216Z,47.81
2023-05-08T08:39:29.148Z,47.83
2023-05-08T08:40:36.829Z,48.01
2023-05-08T08:42:36.482Z,48.08
2023-05-08T08:43:32.226Z,48.22
2023-05-08T08:44:29.017Z,48.47
2023-05-08T08:45:32.740Z,48.25
2023-05-08T08:46:28.985Z,48.23
2023-05-08T08:47:28.928Z,48.31
2023-05-08T08:48:28.883Z,48.50
2023-05-08T08:49:28.931Z,48.43
2023-05-08T08:50:28.833Z,48.48
2023-05-08T08:51:28.929Z,48.48
2023-05-08T08:52:28.768Z,48.58
2023-05-08T08:53:28.756Z,48.61
2023-05-08T08:54:28.925Z,48.64
2023-05-08T08:55:28.931Z,48.69
2023-05-08T08:56:28.672Z,48.77
2023-05-08T08:57:28.662Z,48.74
2023-05-08T08:58:28.923Z,48.85
2023-05-08T08:59:28.593Z,48.86
2023-05-08T09:01:00.544Z,48.92
2023-05-08T09:01:28.620Z,48.98
2023-05-08T09:02:28.627Z,49.08
2023-05-08T09:03:28.646Z,48.96
2023-05-08T09:04:28.937Z,48.91
2023-05-08T09:05:28.474Z,48.95
2023-05-08T09:06:28.466Z,48.97
2023-05-08T09:07:28.450Z,49.04
2023-05-08T09:08:28.453Z,49.11
2023-05-08T09:09:28.392Z,49.17
2023-05-08T09:10:28.429Z,49.26
2023-05-08T09:11:28.365Z,49.32
2023-05-08T09:12:28.287Z,49.36
2023-05-08T09:13:28.406Z,49.44
2023-05-08T09:14:28.229Z,49.52
2023-05-08T09:15:28.434Z,49.57
2023-05-08T09:16:28.729Z,49.67
2023-05-08T09:17:28.204Z,49.70
2023-05-08T09:18:28.215Z,49.73
2023-05-08T09:19:28.935Z,49.79
2023-05-08T09:20:28.081Z,49.88
2023-05-08T09:21:28.439Z,49.96
2023-05-08T09:22:28.388Z,50.06
2023-05-08T09:23:28.200Z,50.11
2023-05-08T09:24:30.636Z,50.17
2023-05-08T09:25:28.515Z,50.30
2023-05-08T09:26:28.176Z,50.23
2023-05-08T09:27:28.309Z,49.76
2023-05-08T09:28:28.601Z,49.99
2023-05-08T09:29:28.078Z,49.71
2023-05-08T09:30:28.011Z,49.73
2023-05-08T09:31:30.183Z,49.78
2023-05-08T09:32:28.124Z,50.01
2023-05-08T09:33:28.008Z,49.93
2023-05-08T09:34:27.898Z,49.98
2023-05-08T09:35:27.859Z,49.97
2023-05-08T09:36:27.942Z,49.99
2023-05-08T09:37:27.816Z,50.02
2023-05-08T09:38:27.768Z,50.01
2023-05-08T09:39:27.753Z,50.44
2023-05-08T09:40:27.715Z,50.40
2023-05-08T09:41:27.946Z,50.14
2023-05-08T09:42:27.668Z,50.23
2023-05-08T09:43:28.015Z,50.29
2023-05-08T09:44:27.608Z,50.34
2023-05-08T09:45:27.983Z,50.59
2023-05-08T09:46:27.649Z,50.50
2023-05-08T09:47:28.537Z,50.55
2023-05-08T09:48:28.068Z,50.64
2023-05-08T09:49:27.508Z,50.89
2023-05-08T09:50:27.543Z,50.77
2023-05-08T09:51:27.568Z,50.80
2023-05-08T09:52:27.616Z,50.77
2023-05-08T09:53:27.947Z,50.67
2023-05-08T09:54:27.799Z,50.63
2023-05-08T09:55:27.669Z,50.73
2023-05-08T09:56:27.950Z,50.71
2023-05-08T09:57:27.737Z,50.79
2023-05-08T09:58:27.791Z,50.80
2023-05-08T09:59:27.847Z,50.88
2023-05-08T10:00:27.950Z,51.03
2023-05-08T10:01:27.963Z,50.95
2023-05-08T10:02:27.982Z,50.95
2023-05-08T10:03:27.989Z,50.99
2023-05-08T10:04:28.133Z,50.99
2023-05-08T10:05:28.202Z,50.99
2023-05-08T10:06:28.456Z,51.08
2023-05-08T10:07:28.118Z,51.04
2023-05-08T10:08:28.492Z,51.13
2023-05-08T10:09:35.634Z,51.19
2023-05-08T10:10:28.165Z,51.24
2023-05-08T10:11:28.137Z,51.26
2023-05-08T10:12:28.095Z,51.23
2023-05-08T10:13:28.555Z,51.24
2023-05-08T10:14:28.030Z,51.29
2023-05-08T10:15:28.002Z,51.30
2023-05-08T10:16:28.021Z,51.60
2023-05-08T10:17:27.988Z,52.10
2023-05-08T10:18:27.962Z,51.59
2023-05-08T10:19:27.935Z,51.70
2023-05-08T10:20:27.985Z,51.73
2023-05-08T10:21:27.975Z,51.44
2023-05-08T10:22:27.814Z,51.47
2023-05-08T10:23:30.984Z,51.40
2023-05-08T10:24:27.758Z,51.42
2023-05-08T10:25:27.764Z,51.33
2023-05-08T10:26:28.002Z,51.29
2023-05-08T10:27:27.722Z,51.28
2023-05-08T10:28:27.666Z,51.24
2023-05-08T10:29:27.671Z,51.17
2023-05-08T10:30:27.609Z,51.18
2023-05-08T10:31:29.053Z,51.15
2023-05-08T10:32:27.984Z,51.10
2023-05-08T10:33:29.004Z,51.05
2023-05-08T10:34:27.581Z,51.10
2023-05-08T10:35:27.555Z,51.09
2023-05-08T10:36:30.331Z,51.11
2023-05-08T10:37:27.514Z,51.08
2023-05-08T10:38:27.987Z,51.07
2023-05-08T10:39:27.451Z,51.07
2023-05-08T10:40:27.460Z,51.03
2023-05-08T10:41:27.403Z,51.00
2023-05-08T10:42:27.380Z,51.06
2023-05-08T10:43:27.362Z,51.03
2023-05-08T10:44:28.338Z,51.01
2023-05-08T10:45:27.295Z,50.97
2023-05-08T10:46:27.538Z,50.97
2023-05-08T10:47:27.309Z,50.97
2023-05-08T10:48:27.226Z,50.93
2023-05-08T10:49:27.183Z,50.91
2023-05-08T10:50:27.162Z,50.88
2023-05-08T10:51:28.005Z,50.91
2023-05-08T10:52:27.513Z,50.87
2023-05-08T10:53:27.103Z,50.87
2023-05-08T10:54:27.998Z,50.89
2023-05-08T10:55:27.059Z,50.87
2023-05-08T10:56:27.074Z,50.86
2023-05-08T10:57:27.474Z,50.84
2023-05-08T10:58:27.016Z,50.83
2023-05-08T10:59:27.526Z,50.82
2023-05-08T11:00:27.449Z,50.78
2023-05-08T11:01:27.131Z,50.73
2023-05-08T11:02:26.973Z,50.74
2023-05-08T11:03:31.958Z,50.72
2023-05-08T11:04:27.049Z,50.73
2023-05-08T11:05:27.850Z,50.71
2023-05-08T11:06:26.973Z,50.71
2023-05-08T11:07:26.806Z,50.69
2023-05-08T11:08:26.830Z,50.68
2023-05-08T11:09:26.776Z,50.66
2023-05-08T11:10:26.982Z,50.61
2023-05-08T11:11:26.791Z,50.65
2023-05-08T11:12:26.704Z,50.63
2023-05-08T11:13:26.743Z,50.61
2023-05-08T11:14:26.682Z,50.62
2023-05-08T11:15:26.986Z,50.60
2023-05-08T11:16:26.984Z,50.58
2023-05-08T11:17:26.616Z,50.56
2023-05-08T11:18:32.484Z,50.55
2023-05-08T11:19:26.552Z,50.56
2023-05-08T11:20:26.501Z,50.60
2023-05-08T11:21:26.511Z,50.56
2023-05-08T11:22:26.452Z,50.52
2023-05-08T11:23:26.967Z,50.50
2023-05-08T11:24:26.448Z,50.49
2023-05-08T11:25:26.382Z,50.46
2023-05-08T11:26:26.352Z,50.44
2023-05-08T11:27:26.331Z,50.45
2023-05-08T11:28:26.503Z,50.42
2023-05-08T11:29:26.500Z,50.41
2023-05-08T11:30:26.350Z,50.44
2023-05-08T11:31:26.297Z,50.42
2023-05-08T11:32:33.647Z,50.37
2023-05-08T11:33:26.492Z,50.39
2023-05-08T11:34:26.151Z,50.34
2023-05-08T11:35:26.125Z,50.31
2023-05-08T11:36:26.688Z,50.36
2023-05-08T11:37:26.540Z,50.30
2023-05-08T11:38:26.092Z,50.25
2023-05-08T11:39:26.017Z,50.26
2023-05-08T11:40:26.102Z,50.20
2023-05-08T11:41:33.363Z,50.20
2023-05-08T11:42:26.016Z,50.17
2023-05-08T11:43:25.941Z,50.13
2023-05-08T11:44:25.896Z,50.05
2023-05-08T11:45:25.865Z,50.05
2023-05-08T11:46:26.071Z,49.98
2023-05-08T11:47:25.864Z,50.01
2023-05-08T11:48:25.810Z,49.95
2023-05-08T11:49:29.166Z,49.96
2023-05-08T11:50:25.781Z,49.91
2023-05-08T11:51:25.757Z,49.89
2023-05-08T11:52:26.050Z,49.84
2023-05-08T11:53:25.702Z,49.83
2023-05-08T11:54:29.197Z,49.79
2023-05-08T11:55:25.630Z,49.78
2023-05-08T11:56:25.616Z,49.73
2023-05-08T11:57:28.787Z,49.72
2023-05-08T11:58:26.552Z,49.73
2023-05-08T11:59:26.015Z,49.68
2023-05-08T12:00:25.520Z,49.71
2023-05-08T12:01:32.924Z,49.64
2023-05-08T12:02:25.504Z,49.65
2023-05-08T12:03:41.178Z,49.62
2023-05-08T12:04:25.547Z,49.63
2023-05-08T12:05:25.370Z,49.55
2023-05-08T12:06:26.343Z,49.56
2023-05-08T12:07:25.519Z,49.55
2023-05-08T12:08:25.290Z,49.48
2023-05-08T12:09:25.261Z,49.46
2023-05-08T12:10:25.249Z,49.41
2023-05-08T12:11:26.211Z,49.43
2023-05-08T12:12:25.214Z,49.38
2023-05-08T12:13:25.292Z,49.36
2023-05-08T12:14:25.185Z,49.34
2023-05-08T12:15:25.103Z,49.30
2023-05-08T12:16:25.116Z,49.29
2023-05-08T12:17:25.683Z,49.25
2023-05-08T12:18:25.387Z,49.22
2023-05-08T12:19:25.601Z,49.20
2023-05-08T12:20:25.590Z,49.21
2023-05-08T12:21:25.245Z,49.18
2023-05-08T12:22:25.438Z,49.19
2023-05-08T12:23:25.381Z,49.18
2023-05-08T12:24:25.400Z,49.18
2023-05-08T12:25:26.611Z,49.20
2023-05-08T12:26:25.204Z,49.16
2023-05-08T12:27:25.466Z,49.16
2023-05-08T12:28:25.269Z,49.14
2023-05-08T12:29:26.133Z,49.12
2023-05-08T12:30:25.059Z,49.13
2023-05-08T12:31:25.176Z,49.11
2023-05-08T12:32:27.116Z,49.07
2023-05-08T12:33:25.065Z,49.06
2023-05-08T12:34:25.042Z,49.07
2023-05-08T12:35:24.991Z,49.08
2023-05-08T12:36:24.935Z,49.07
2023-05-08T12:37:25.452Z,49.06
2023-05-08T12:38:24.820Z,49.04
2023-05-08T12:39:25.016Z,49.04
2023-05-08T12:40:25.064Z,49.04
2023-05-08T12:41:24.725Z,49.05
2023-05-08T12:42:24.936Z,49.03
2023-05-08T12:43:24.993Z,49.03
2023-05-08T12:44:25.004Z,49.03
2023-05-08T12:45:24.951Z,49.02
2023-05-08T12:46:24.339Z,49.01
2023-05-08T12:47:24.287Z,49.01
2023-05-08T12:48:24.262Z,49.00
2023-05-08T12:49:24.258Z,49.02
2023-05-08T12:50:24.515Z,49.00
2023-05-08T12:51:24.171Z,49.01
2023-05-08T12:52:24.140Z,48.97
2023-05-08T12:53:24.111Z,48.94
2023-05-08T12:54:24.084Z,48.97
2023-05-08T12:55:24.066Z,48.98
2023-05-08T12:56:24.526Z,48.92